createdAt,value
2023-06-27T00:00:42.494Z,16.40
2023-06-27T00:03:31.282Z,15.20
2023-06-27T00:06:02.185Z,15.40
2023-06-27T00:08:30.689Z,16.70
2023-06-27T00:10:59.881Z,17.00
2023-06-27T00:13:30.313Z,15.10
2023-06-27T00:16:01.615Z,17.80
2023-06-27T00:18:35.969Z,15.50
2023-06-27T00:21:06.538Z,16.10
2023-06-27T00:23:35.240Z,18.50
2023-06-27T00:26:04.808Z,17.00
2023-06-27T00:29:49.818Z,18.70
2023-06-27T00:32:18.531Z,15.70
2023-06-27T00:34:47.347Z,15.50
2023-06-27T00:37:15.958Z,14.30
2023-06-27T00:39:44.612Z,14.10
2023-06-27T00:42:13.303Z,13.00
2023-06-27T00:44:42.052Z,13.30
2023-06-27T00:47:10.855Z,12.70
2023-06-27T00:49:40.122Z,15.20
2023-06-27T00:52:09.326Z,15.40
2023-06-27T00:54:38.430Z,16.10
2023-06-27T00:57:08.025Z,18.30
2023-06-27T00:59:39.143Z,14.80
2023-06-27T01:02:10.169Z,14.00
2023-06-27T01:04:40.717Z,16.70
2023-06-27T01:07:15.198Z,16.80
2023-06-27T01:09:52.130Z,15.00
2023-06-27T01:12:22.671Z,16.10
2023-06-27T01:14:53.908Z,17.90
2023-06-27T01:17:23.697Z,13.80
2023-06-27T01:19:54.164Z,17.80
2023-06-27T01:22:34.439Z,17.10
2023-06-27T01:25:04.800Z,14.10
2023-06-27T01:27:47.717Z,16.50
2023-06-27T01:30:19.247Z,16.30
2023-06-27T01:32:55.031Z,15.90
2023-06-27T01:35:34.562Z,12.40
2023-06-27T01:38:15.373Z,20.10
2023-06-27T01:40:46.664Z,18.20
2023-06-27T01:43:15.778Z,17.40
2023-06-27T01:45:45.716Z,16.40
2023-06-27T01:48:14.799Z,17.80
2023-06-27T01:50:43.802Z,13.10
2023-06-27T01:53:12.348Z,13.10
2023-06-27T01:55:41.362Z,13.10
2023-06-27T01:58:10.203Z,15.30
2023-06-27T02:00:39.528Z,11.60
2023-06-27T02:03:09.265Z,14.10
2023-06-27T02:05:39.034Z,12.20
2023-06-27T02:08:07.986Z,15.20
2023-06-27T02:10:37.289Z,13.30
2023-06-27T02:13:06.611Z,13.40
2023-06-27T02:15:35.532Z,12.10
2023-06-27T02:18:05.833Z,11.00
2023-06-27T02:20:34.834Z,14.20
2023-06-27T02:23:03.558Z,13.10
2023-06-27T02:25:32.750Z,16.60
2023-06-27T02:28:07.246Z,14.50
2023-06-27T02:30:36.030Z,12.50
2023-06-27T02:33:04.857Z,16.30
2023-06-27T02:35:34.495Z,11.60
2023-06-27T02:38:03.671Z,11.70
2023-06-27T02:40:33.146Z,14.00
2023-06-27T02:43:01.701Z,16.20
2023-06-27T02:45:30.556Z,14.90
2023-06-27T02:48:00.237Z,10.70
2023-06-27T02:50:28.957Z,9.90
2023-06-27T02:52:58.235Z,13.40
2023-06-27T02:55:27.934Z,9.60
2023-06-27T02:57:56.517Z,11.90
2023-06-27T03:00:25.342Z,12.10
2023-06-27T03:02:54.060Z,13.60
2023-06-27T03:05:22.801Z,8.50
2023-06-27T03:07:51.893Z,10.80
2023-06-27T03:10:20.603Z,9.90
2023-06-27T03:12:49.266Z,12.40
2023-06-27T03:15:17.849Z,9.60
2023-06-27T03:17:46.614Z,10.70
2023-06-27T03:20:15.407Z,9.40
2023-06-27T03:22:45.611Z,12.60
2023-06-27T03:25:15.007Z,8.40
2023-06-27T03:27:47.883Z,11.10
2023-06-27T03:30:16.704Z,11.00
2023-06-27T03:32:46.790Z,10.40
2023-06-27T03:35:15.740Z,9.10
2023-06-27T03:37:44.866Z,14.70
2023-06-27T03:40:13.479Z,8.00
2023-06-27T03:42:43.323Z,9.00
2023-06-27T03:45:12.005Z,11.40
2023-06-27T03:47:40.703Z,11.30
2023-06-27T03:50:09.574Z,7.20
2023-06-27T03:52:38.178Z,7.20
2023-06-27T03:55:07.618Z,8.10
2023-06-27T03:57:36.469Z,9.10
2023-06-27T04:00:08.869Z,11.00
2023-06-27T04:02:38.030Z,9.30
2023-06-27T04:05:07.992Z,9.80
2023-06-27T04:07:37.531Z,9.40
2023-06-27T04:10:06.806Z,8.50
2023-06-27T04:12:35.458Z,7.50
2023-06-27T04:15:04.964Z,10.40
2023-06-27T04:17:34.494Z,10.70
2023-06-27T04:20:03.709Z,9.10
2023-06-27T04:22:32.794Z,7.70
2023-06-27T04:25:02.017Z,8.80
2023-06-27T04:27:31.588Z,8.70
2023-06-27T04:30:00.905Z,9.20
2023-06-27T04:32:30.027Z,8.00
2023-06-27T04:34:58.982Z,9.80
2023-06-27T04:37:28.171Z,9.20
2023-06-27T04:39:57.141Z,10.90
2023-06-27T04:42:26.457Z,7.70
2023-06-27T04:44:57.245Z,7.00
2023-06-27T04:47:25.951Z,8.40
2023-06-27T04:49:55.214Z,11.30
2023-06-27T04:52:24.046Z,7.00
2023-06-27T04:54:55.364Z,9.30
2023-06-27T04:57:24.546Z,9.50
2023-06-27T04:59:53.707Z,7.30
2023-06-27T05:02:22.628Z,6.70
2023-06-27T05:04:51.723Z,8.50
2023-06-27T05:07:21.917Z,8.50
2023-06-27T05:09:50.676Z,10.60
2023-06-27T05:12:19.392Z,11.50
2023-06-27T05:14:48.193Z,8.70
2023-06-27T05:17:16.872Z,5.40
2023-06-27T05:19:46.084Z,12.30
2023-06-27T05:22:14.982Z,7.60
2023-06-27T05:24:43.692Z,9.30
2023-06-27T05:27:12.512Z,8.20
2023-06-27T05:29:41.395Z,11.90
2023-06-27T05:32:11.293Z,7.60
2023-06-27T05:34:40.042Z,9.30
2023-06-27T05:37:08.568Z,6.50
2023-06-27T05:39:37.753Z,8.50
2023-06-27T05:42:06.455Z,9.20
2023-06-27T05:44:35.156Z,9.20
2023-06-27T05:47:04.717Z,7.60
2023-06-27T05:49:33.350Z,7.00
2023-06-27T05:52:01.999Z,5.80
2023-06-27T05:54:31.219Z,6.40
2023-06-27T05:57:00.570Z,9.90
2023-06-27T05:59:29.662Z,6.70
2023-06-27T06:01:58.974Z,7.60
2023-06-27T06:04:27.868Z,7.60
2023-06-27T06:06:57.207Z,9.20
2023-06-27T06:09:27.060Z,7.90
2023-06-27T06:11:55.953Z,6.20
2023-06-27T06:14:25.248Z,6.60
2023-06-27T06:16:55.051Z,9.20
2023-06-27T06:19:24.130Z,5.60
2023-06-27T06:21:52.866Z,11.70
2023-06-27T06:24:22.119Z,7.50
2023-06-27T06:26:57.022Z,8.90
2023-06-27T06:29:25.884Z,6.30
2023-06-27T06:31:54.705Z,6.90
2023-06-27T06:34:23.513Z,4.60
2023-06-27T06:36:53.111Z,6.10
2023-06-27T06:39:22.479Z,7.90
2023-06-27T06:41:51.213Z,4.60
2023-06-27T06:44:20.112Z,4.80
2023-06-27T06:46:48.834Z,6.30
2023-06-27T06:49:17.563Z,8.40
2023-06-27T06:51:46.359Z,8.20
2023-06-27T06:54:15.055Z,6.00
2023-06-27T06:56:44.806Z,7.20
2023-06-27T06:59:14.659Z,6.90
2023-06-27T07:01:43.413Z,6.40
2023-06-27T07:04:12.202Z,6.40
2023-06-27T07:06:40.973Z,7.80
2023-06-27T07:09:09.816Z,4.20
2023-06-27T07:11:38.726Z,7.70
2023-06-27T07:14:07.366Z,6.00
2023-06-27T07:16:36.055Z,4.30
2023-06-27T07:19:04.776Z,6.00
2023-06-27T07:21:34.474Z,7.60
2023-06-27T07:24:03.563Z,6.70
2023-06-27T07:26:33.742Z,7.40
2023-06-27T07:29:03.050Z,5.30
2023-06-27T07:31:31.838Z,6.70
2023-06-27T07:34:00.565Z,5.00
2023-06-27T07:36:29.827Z,4.50
2023-06-27T07:38:59.959Z,6.10
2023-06-27T07:41:30.470Z,6.10
2023-06-27T07:43:59.026Z,6.60
2023-06-27T07:46:27.693Z,5.50
2023-06-27T07:49:00.685Z,6.00
2023-06-27T07:53:58.487Z,6.00
2023-06-27T07:56:27.401Z,5.30
2023-06-27T07:58:56.450Z,5.20
2023-06-27T08:01:25.795Z,9.20
2023-06-27T08:03:54.523Z,5.30
2023-06-27T08:06:23.686Z,6.20
2023-06-27T08:08:52.586Z,6.50
2023-06-27T08:11:22.533Z,6.80
2023-06-27T08:13:51.764Z,4.10
2023-06-27T08:16:20.509Z,5.10
2023-06-27T08:18:49.407Z,3.50
2023-06-27T08:21:18.577Z,5.90
2023-06-27T08:23:47.478Z,4.10
2023-06-27T08:26:17.168Z,5.90
2023-06-27T08:28:47.189Z,5.60
2023-06-27T08:32:12.017Z,4.30
2023-06-27T08:34:41.404Z,2.70
2023-06-27T08:37:11.130Z,9.30
2023-06-27T08:39:40.732Z,4.40
2023-06-27T08:42:09.813Z,6.80
2023-06-27T08:44:38.563Z,4.30
2023-06-27T08:47:09.718Z,6.50
2023-06-27T08:49:43.343Z,4.80
2023-06-27T08:52:18.075Z,5.30
2023-06-27T08:54:54.317Z,4.80
2023-06-27T08:57:31.145Z,3.80
2023-06-27T09:00:10.693Z,6.40
2023-06-27T09:02:41.304Z,5.50
2023-06-27T09:05:11.280Z,5.30
2023-06-27T09:07:40.356Z,5.90
2023-06-27T09:10:09.945Z,4.20
2023-06-27T09:12:39.939Z,7.50
2023-06-27T09:15:09.503Z,4.30
2023-06-27T09:17:40.252Z,5.70
2023-06-27T09:20:10.160Z,2.30
2023-06-27T09:22:40.798Z,9.70
2023-06-27T09:25:21.359Z,6.60
2023-06-27T09:27:53.216Z,8.80
2023-06-27T09:30:25.001Z,6.00
2023-06-27T09:32:58.498Z,7.30
2023-06-27T09:40:39.635Z,4.20
2023-06-27T09:43:09.560Z,4.00
2023-06-27T09:45:38.858Z,3.60
2023-06-27T09:48:12.365Z,2.90
2023-06-27T09:50:41.222Z,3.00
2023-06-27T09:53:10.922Z,5.40
2023-06-27T09:55:47.318Z,6.00
2023-06-27T09:58:27.031Z,4.80
2023-06-27T10:00:57.264Z,4.40
2023-06-27T10:03:26.121Z,7.30
2023-06-27T10:06:07.995Z,7.20
2023-06-27T10:08:41.826Z,3.40
2023-06-27T10:11:13.000Z,7.60
2023-06-27T10:13:43.390Z,3.70
2023-06-27T10:16:13.333Z,4.00
2023-06-27T10:18:42.169Z,3.20
2023-06-27T10:21:12.637Z,4.20
2023-06-27T10:23:43.832Z,3.80
2023-06-27T10:26:13.050Z,4.20
2023-06-27T10:28:41.967Z,4.40
2023-06-27T10:31:10.770Z,3.90
2023-06-27T10:33:43.619Z,2.70
2023-06-27T10:36:12.586Z,5.30
2023-06-27T10:38:42.443Z,2.90
2023-06-27T10:41:13.604Z,3.10
2023-06-27T10:43:48.521Z,3.60
2023-06-27T10:46:28.070Z,2.10
2023-06-27T10:49:01.174Z,4.50
2023-06-27T10:51:43.167Z,4.20
2023-06-27T10:54:13.388Z,3.80
2023-06-27T10:56:47.079Z,4.60
2023-06-27T10:59:21.212Z,6.30
2023-06-27T11:02:04.536Z,5.70
2023-06-27T11:04:42.777Z,9.20
2023-06-27T11:07:20.466Z,14.30
2023-06-27T11:09:57.088Z,5.30
2023-06-27T11:12:34.550Z,3.20
2023-06-27T11:15:04.109Z,6.20
2023-06-27T11:17:37.297Z,3.10
2023-06-27T11:20:09.607Z,5.30
2023-06-27T11:22:39.233Z,3.00
2023-06-27T11:25:16.063Z,3.30
2023-06-27T11:27:47.047Z,3.10
2023-06-27T11:30:17.994Z,3.90
2023-06-27T11:32:46.855Z,4.30
2023-06-27T11:35:16.117Z,4.10
2023-06-27T11:37:45.040Z,4.00
2023-06-27T11:40:20.094Z,4.40
2023-06-27T11:42:49.548Z,4.60
2023-06-27T11:45:18.855Z,3.40
2023-06-27T11:47:47.973Z,3.80
2023-06-27T11:50:16.979Z,4.80
2023-06-27T11:52:48.816Z,3.50
2023-06-27T11:55:17.698Z,4.40
2023-06-27T11:57:53.193Z,2.80
2023-06-27T12:00:30.563Z,4.90
2023-06-27T12:03:07.807Z,3.80
2023-06-27T12:05:37.049Z,6.40
2023-06-27T12:08:09.253Z,5.00
2023-06-27T12:10:53.809Z,7.90
2023-06-27T12:13:23.036Z,4.60
2023-06-27T12:15:51.922Z,3.90
2023-06-27T12:18:28.754Z,4.00
2023-06-27T12:20:58.924Z,5.60
2023-06-27T12:23:33.031Z,5.80
2023-06-27T12:28:57.819Z,4.20
2023-06-27T12:31:27.848Z,3.70
2023-06-27T12:33:59.094Z,2.00
2023-06-27T12:36:29.957Z,5.60
2023-06-27T12:38:58.853Z,4.40
2023-06-27T12:41:35.189Z,4.90
2023-06-27T12:44:04.398Z,3.20
2023-06-27T12:46:35.568Z,4.50
2023-06-27T12:49:04.452Z,1.90
2023-06-27T12:51:33.429Z,1.80
2023-06-27T12:54:02.392Z,2.60
2023-06-27T12:56:31.241Z,3.90
2023-06-27T12:59:00.083Z,2.60
2023-06-27T13:01:36.046Z,3.00
2023-06-27T13:04:05.177Z,3.70
2023-06-27T13:06:34.528Z,4.20
2023-06-27T13:09:03.432Z,5.40
2023-06-27T13:11:32.264Z,3.90
2023-06-27T13:14:01.699Z,3.00
2023-06-27T13:16:30.770Z,3.70
2023-06-27T13:19:00.237Z,4.10
2023-06-27T13:21:29.528Z,3.80
2023-06-27T13:23:58.895Z,2.80
2023-06-27T13:26:28.715Z,3.10
2023-06-27T13:29:23.510Z,3.70
2023-06-27T13:31:52.526Z,3.00
2023-06-27T13:34:21.985Z,3.00
2023-06-27T13:36:51.624Z,2.20
2023-06-27T13:39:20.865Z,6.30
2023-06-27T13:41:50.045Z,3.80
2023-06-27T13:44:18.738Z,4.40
2023-06-27T13:46:47.545Z,2.10
2023-06-27T13:49:16.225Z,5.20
2023-06-27T13:51:45.032Z,3.30
2023-06-27T13:54:14.040Z,3.70
2023-06-27T13:56:42.821Z,3.20
2023-06-27T13:59:11.557Z,4.50
2023-06-27T14:01:40.768Z,4.20
2023-06-27T14:04:10.355Z,3.50
2023-06-27T14:06:39.291Z,4.50
2023-06-27T14:09:09.891Z,6.70
2023-06-27T14:11:39.009Z,13.00
2023-06-27T14:14:07.758Z,5.30
2023-06-27T14:16:36.712Z,4.00
2023-06-27T14:19:07.116Z,3.10
2023-06-27T14:21:38.514Z,3.00
2023-06-27T14:24:07.958Z,4.00
2023-06-27T14:26:37.570Z,4.80
2023-06-27T14:29:06.345Z,2.40
2023-06-27T14:31:35.664Z,3.20
2023-06-27T14:34:05.442Z,5.90
2023-06-27T14:36:34.952Z,3.90
2023-06-27T14:39:04.251Z,3.90
2023-06-27T14:41:33.576Z,4.70
2023-06-27T14:44:04.008Z,5.30
2023-06-27T14:46:33.084Z,4.50
2023-06-27T14:49:02.216Z,3.50
2023-06-27T14:51:31.137Z,3.00
2023-06-27T14:54:00.422Z,5.60
2023-06-27T14:56:29.366Z,7.80
2023-06-27T14:58:58.185Z,7.70
2023-06-27T15:01:57.502Z,13.10
2023-06-27T15:04:27.497Z,7.50
2023-06-27T15:06:56.829Z,4.00
2023-06-27T15:09:26.123Z,6.80
2023-06-27T15:11:55.188Z,6.10
2023-06-27T15:14:24.327Z,4.60
2023-06-27T15:16:53.211Z,10.50
2023-06-27T15:19:22.276Z,11.00
2023-06-27T15:21:51.153Z,8.60
2023-06-27T15:24:20.172Z,5.40
2023-06-27T15:27:14.441Z,6.70
2023-06-27T15:32:12.402Z,8.30
2023-06-27T15:34:43.520Z,5.20
2023-06-27T15:37:13.188Z,6.10
2023-06-27T15:39:42.163Z,2.80
2023-06-27T15:42:11.100Z,4.00
2023-06-27T15:44:40.283Z,5.40
2023-06-27T15:49:41.281Z,4.00
2023-06-27T15:52:10.375Z,1.80
2023-06-27T15:54:39.308Z,5.10
2023-06-27T15:57:08.206Z,3.90
2023-06-27T15:59:37.065Z,3.40
2023-06-27T16:02:06.141Z,5.70
2023-06-27T16:04:35.490Z,3.00
2023-06-27T16:07:04.481Z,4.80
2023-06-27T16:09:34.123Z,3.40
2023-06-27T16:12:03.308Z,4.50
2023-06-27T16:14:32.055Z,4.00
2023-06-27T16:17:00.923Z,4.00
2023-06-27T16:19:30.423Z,3.00
2023-06-27T16:21:59.161Z,3.50
2023-06-27T16:24:27.980Z,1.80
2023-06-27T16:26:57.269Z,4.80
2023-06-27T16:29:26.134Z,1.20
2023-06-27T16:31:55.065Z,2.80
2023-06-27T16:34:23.988Z,3.00
2023-06-27T16:36:52.729Z,2.50
2023-06-27T16:39:21.728Z,3.00
2023-06-27T16:41:50.813Z,2.30
2023-06-27T16:44:19.872Z,2.10
2023-06-27T16:46:49.950Z,6.40
2023-06-27T16:49:19.125Z,3.50
2023-06-27T16:51:48.052Z,4.40
2023-06-27T16:54:19.293Z,3.40
2023-06-27T16:56:48.224Z,4.60
2023-06-27T16:59:17.897Z,3.80
2023-06-27T17:01:50.399Z,4.70
2023-06-27T17:04:21.148Z,2.50
2023-06-27T17:06:50.569Z,5.60
2023-06-27T17:09:19.576Z,4.00
2023-06-27T17:11:49.010Z,3.00
2023-06-27T17:14:17.983Z,2.10
2023-06-27T17:16:47.325Z,2.80
2023-06-27T17:19:16.799Z,3.90
2023-06-27T17:21:45.839Z,2.00
2023-06-27T17:24:14.773Z,3.30
2023-06-27T17:26:44.331Z,3.90
2023-06-27T17:29:14.271Z,2.70
2023-06-27T17:31:43.329Z,1.70
2023-06-27T17:34:12.465Z,3.20
2023-06-27T17:36:43.267Z,1.90
2023-06-27T17:39:13.829Z,3.20
2023-06-27T17:41:43.758Z,1.40
2023-06-27T17:44:13.269Z,1.80
2023-06-27T17:46:42.418Z,2.30
2023-06-27T17:49:11.676Z,3.10
2023-06-27T17:51:41.139Z,3.80
2023-06-27T17:54:10.928Z,2.00
2023-06-27T17:56:40.563Z,3.30
2023-06-27T17:59:09.847Z,3.50
2023-06-27T18:01:39.541Z,2.30
2023-06-27T18:04:09.762Z,4.10
2023-06-27T18:06:40.459Z,1.90
2023-06-27T18:09:10.092Z,4.40
2023-06-27T18:11:42.606Z,3.30
2023-06-27T18:14:13.173Z,2.60
2023-06-27T18:16:46.057Z,2.60
2023-06-27T18:19:16.106Z,1.30
2023-06-27T18:21:45.823Z,3.20
2023-06-27T18:24:16.034Z,2.20
2023-06-27T18:26:49.398Z,1.00
2023-06-27T18:29:21.769Z,1.40
2023-06-27T18:31:51.273Z,1.50
2023-06-27T18:34:23.958Z,2.50
2023-06-27T18:36:54.211Z,2.30
2023-06-27T18:39:24.081Z,1.60
2023-06-27T18:41:56.107Z,3.90
2023-06-27T18:44:28.360Z,3.00
2023-06-27T18:47:00.854Z,1.30
2023-06-27T18:49:33.477Z,1.30
2023-06-27T18:52:06.514Z,1.20
2023-06-27T18:54:39.565Z,2.80
2023-06-27T18:57:09.413Z,1.40
2023-06-27T18:59:39.174Z,1.30
2023-06-27T19:02:09.437Z,1.90
2023-06-27T19:05:22.902Z,2.00
2023-06-27T19:07:54.426Z,2.20
2023-06-27T19:10:28.603Z,1.10
2023-06-27T19:12:59.878Z,3.50
2023-06-27T19:15:31.088Z,2.20
2023-06-27T19:18:15.557Z,2.50
2023-06-27T19:21:33.664Z,2.20
2023-06-27T19:24:07.874Z,2.80
2023-06-27T19:26:39.300Z,3.20
2023-06-27T19:29:19.323Z,3.60
2023-06-27T19:31:55.901Z,1.90
2023-06-27T19:34:26.017Z,2.50
2023-06-27T19:37:01.882Z,4.60
2023-06-27T19:39:38.107Z,4.00
2023-06-27T19:42:50.508Z,3.80
2023-06-27T19:45:30.565Z,3.10
2023-06-27T19:48:07.647Z,4.30
2023-06-27T19:50:42.467Z,3.40
2023-06-27T19:53:13.181Z,3.30
2023-06-27T19:56:05.170Z,6.60
2023-06-27T19:58:53.314Z,4.00
2023-06-27T20:01:23.841Z,4.60
2023-06-27T20:04:30.682Z,3.60
2023-06-27T20:07:55.907Z,3.90
2023-06-27T20:10:59.792Z,4.20
2023-06-27T20:19:58.133Z,3.20
2023-06-27T20:22:31.180Z,3.80
2023-06-27T20:25:27.752Z,6.10
2023-06-27T20:28:22.149Z,4.40
2023-06-27T20:30:53.154Z,8.20
2023-06-27T20:33:22.431Z,5.00
2023-06-27T20:35:51.485Z,5.20
2023-06-27T20:38:21.832Z,5.60
2023-06-27T20:40:55.622Z,3.30
2023-06-27T20:43:25.312Z,4.50
2023-06-27T20:45:55.274Z,5.90
2023-06-27T20:48:25.506Z,5.40
2023-06-27T20:50:55.626Z,5.70
2023-06-27T20:53:25.709Z,10.40
2023-06-27T20:56:22.317Z,6.50
2023-06-27T20:58:51.699Z,7.90
2023-06-27T21:01:22.027Z,7.10
2023-06-27T21:03:52.605Z,7.50
2023-06-27T21:06:22.568Z,3.80
2023-06-27T21:08:52.607Z,14.10
2023-06-27T21:11:22.115Z,6.40
2023-06-27T21:13:53.113Z,5.10
2023-06-27T21:16:22.661Z,5.80
2023-06-27T21:18:51.578Z,3.70
2023-06-27T21:21:21.651Z,6.20
2023-06-27T21:23:51.431Z,6.70
2023-06-27T21:26:20.493Z,6.40
2023-06-27T21:29:17.083Z,4.50
2023-06-27T21:31:46.412Z,4.60
2023-06-27T21:34:15.440Z,5.20
2023-06-27T21:36:44.938Z,5.60
2023-06-27T21:39:14.974Z,4.60
2023-06-27T21:41:44.756Z,10.60
2023-06-27T21:44:13.614Z,5.60
2023-06-27T21:46:42.416Z,5.10
2023-06-27T21:49:12.090Z,5.20
2023-06-27T21:51:41.279Z,4.40
2023-06-27T21:54:10.833Z,7.20
2023-06-27T21:56:39.999Z,4.90
2023-06-27T21:59:09.845Z,4.70
2023-06-27T22:01:39.509Z,6.20
2023-06-27T22:04:08.593Z,5.50
2023-06-27T22:06:43.917Z,3.70
2023-06-27T22:09:14.523Z,4.30
2023-06-27T22:11:45.067Z,3.70
2023-06-27T22:14:14.676Z,7.50
2023-06-27T22:16:44.551Z,7.40
2023-06-27T22:19:13.826Z,6.60
2023-06-27T22:21:43.091Z,5.20
2023-06-27T22:24:12.116Z,5.00
2023-06-27T22:26:42.034Z,3.60
2023-06-27T22:29:33.376Z,5.50
2023-06-27T22:32:02.701Z,5.00
2023-06-27T22:34:31.695Z,7.10
2023-06-27T22:37:00.699Z,4.10
2023-06-27T22:39:30.689Z,3.10
2023-06-27T22:41:59.858Z,3.80
2023-06-27T22:44:29.463Z,4.50
2023-06-27T22:46:58.649Z,3.00
2023-06-27T22:49:28.076Z,4.40
2023-06-27T22:51:57.107Z,3.70
2023-06-27T22:54:26.318Z,4.90
2023-06-27T22:56:55.892Z,3.60
2023-06-27T22:59:25.545Z,3.70
2023-06-27T23:01:54.766Z,4.00
2023-06-27T23:04:23.748Z,3.80
2023-06-27T23:06:53.024Z,4.20
2023-06-27T23:09:21.902Z,3.10
2023-06-27T23:11:51.319Z,3.60
2023-06-27T23:14:20.427Z,6.70
2023-06-27T23:16:50.441Z,4.90
2023-06-27T23:19:24.069Z,4.60
2023-06-27T23:22:00.976Z,5.20
2023-06-27T23:24:30.032Z,3.70
2023-06-27T23:26:59.320Z,7.00
2023-06-27T23:29:32.029Z,6.90
2023-06-27T23:32:01.540Z,4.00
2023-06-27T23:34:30.544Z,7.50
2023-06-27T23:36:59.417Z,5.10
2023-06-27T23:39:28.453Z,6.00
2023-06-27T23:41:57.575Z,7.40
2023-06-27T23:44:27.351Z,5.60
2023-06-27T23:46:56.252Z,2.90
2023-06-27T23:49:25.445Z,5.80
2023-06-27T23:51:54.639Z,2.90
2023-06-27T23:54:24.262Z,5.00
2023-06-27T23:56:54.173Z,6.40
2023-06-27T23:59:23.135Z,5.50
